createdAt,value
2022-10-24T00:03:57.113Z,54.94
2022-10-24T00:06:23.607Z,54.79
2022-10-24T00:08:50.058Z,54.90
2022-10-24T00:13:43.804Z,54.87
2022-10-24T00:19:04.923Z,54.93
2022-10-24T00:21:32.224Z,54.98
2022-10-24T00:23:58.688Z,55.03
2022-10-24T00:26:25.143Z,55.03
2022-10-24T00:28:52.572Z,54.99
2022-10-24T00:34:14.973Z,54.63
2022-10-24T00:36:42.337Z,54.92
2022-10-24T00:39:08.765Z,54.55
2022-10-24T00:41:36.137Z,54.38
2022-10-24T00:44:03.493Z,54.49
2022-10-24T00:49:24.860Z,54.44
2022-10-24T00:51:51.363Z,54.64
2022-10-24T00:54:18.737Z,54.44
2022-10-24T00:56:46.080Z,54.60
2022-10-24T00:59:12.523Z,54.53
2022-10-24T01:04:22.824Z,54.54
2022-10-24T01:06:50.192Z,54.50
2022-10-24T01:09:16.654Z,54.70
2022-10-24T01:11:43.095Z,54.41
2022-10-24T01:14:09.562Z,54.16
2022-10-24T01:16:36.006Z,54.10
2022-10-24T01:19:02.457Z,53.97
2022-10-24T01:21:28.928Z,54.02
2022-10-24T01:23:56.358Z,54.11
2022-10-24T01:26:22.795Z,54.20
2022-10-24T01:28:49.249Z,54.30
2022-10-24T01:31:15.710Z,54.09
2022-10-24T01:33:43.099Z,54.31
2022-10-24T01:36:10.478Z,54.05
2022-10-24T01:38:36.927Z,54.10
2022-10-24T01:41:03.393Z,54.28
2022-10-24T01:43:30.771Z,54.61
2022-10-24T01:45:58.178Z,54.27
2022-10-24T01:48:24.621Z,54.42
2022-10-24T01:50:51.092Z,54.08
2022-10-24T01:53:19.973Z,54.23
2022-10-24T01:55:47.692Z,54.58
2022-10-24T01:58:15.100Z,54.31
2022-10-24T02:03:13.896Z,54.41
2022-10-24T02:05:42.369Z,54.21
2022-10-24T02:08:08.935Z,54.34
2022-10-24T02:10:35.388Z,54.29
2022-10-24T02:13:02.785Z,54.15
2022-10-24T02:15:29.212Z,54.00
2022-10-24T02:17:56.581Z,54.16
2022-10-24T02:20:23.039Z,54.05
2022-10-24T02:22:49.478Z,53.90
2022-10-24T02:25:15.949Z,53.73
2022-10-24T02:27:42.663Z,53.94
2022-10-24T02:30:09.375Z,53.94
2022-10-24T02:32:35.824Z,53.81
2022-10-24T02:35:02.306Z,53.82
2022-10-24T02:37:29.660Z,53.68
2022-10-24T02:39:57.062Z,53.68
2022-10-24T02:42:23.529Z,53.59
2022-10-24T02:44:50.014Z,53.77
2022-10-24T02:47:17.401Z,53.51
2022-10-24T02:52:38.711Z,53.69
2022-10-24T02:55:05.218Z,53.96
2022-10-24T02:57:31.666Z,53.18
2022-10-24T02:59:58.109Z,53.58
2022-10-24T03:02:24.545Z,53.29
2022-10-24T03:07:34.843Z,53.86
2022-10-24T03:10:02.213Z,54.11
2022-10-24T03:12:28.663Z,54.48
2022-10-24T03:14:55.127Z,54.44
2022-10-24T03:17:22.569Z,54.78
2022-10-24T03:22:34.089Z,54.64
2022-10-24T03:25:00.555Z,54.63
2022-10-24T03:27:26.968Z,54.34
2022-10-24T03:29:53.432Z,54.97
2022-10-24T03:32:20.834Z,54.67
2022-10-24T03:37:42.259Z,54.70
2022-10-24T03:40:08.785Z,54.94
2022-10-24T03:42:35.239Z,54.80
2022-10-24T03:45:02.604Z,55.34
2022-10-24T03:47:29.978Z,55.16
2022-10-24T03:52:40.541Z,55.24
2022-10-24T03:55:07.004Z,55.00
2022-10-24T03:57:33.991Z,54.93
2022-10-24T04:00:00.477Z,55.10
2022-10-24T04:02:26.949Z,55.01
2022-10-24T04:07:48.177Z,55.04
2022-10-24T04:10:15.651Z,55.18
2022-10-24T04:12:42.088Z,55.39
2022-10-24T04:15:08.608Z,55.52
2022-10-24T04:17:35.985Z,54.98
2022-10-24T04:22:46.757Z,54.87
2022-10-24T04:25:14.309Z,54.79
2022-10-24T04:27:41.715Z,55.21
2022-10-24T04:30:09.859Z,55.20
2022-10-24T04:32:38.071Z,54.62
2022-10-24T04:37:58.497Z,55.56
2022-10-24T04:40:24.959Z,54.75
2022-10-24T04:42:51.421Z,54.79
2022-10-24T04:45:17.888Z,54.53
2022-10-24T04:47:44.596Z,54.42
2022-10-24T04:53:05.999Z,54.41
2022-10-24T04:55:32.539Z,54.34
2022-10-24T04:57:59.043Z,54.57
2022-10-24T05:00:26.399Z,54.55
2022-10-24T05:02:54.210Z,54.36
2022-10-24T05:08:07.220Z,54.29
2022-10-24T05:10:34.581Z,54.37
2022-10-24T05:13:01.024Z,54.02
2022-10-24T05:15:27.497Z,54.63
2022-10-24T05:17:54.881Z,54.48
2022-10-24T05:23:16.146Z,54.40
2022-10-24T05:25:42.688Z,54.12
2022-10-24T05:28:09.158Z,54.05
2022-10-24T05:30:36.526Z,54.47
2022-10-24T05:33:02.995Z,53.90
2022-10-24T05:38:14.301Z,53.83
2022-10-24T05:40:40.861Z,53.81
2022-10-24T05:43:07.335Z,53.54
2022-10-24T05:45:33.783Z,54.01
2022-10-24T05:48:00.245Z,54.32
2022-10-24T05:53:11.843Z,54.78
2022-10-24T05:55:38.291Z,54.74
2022-10-24T05:58:05.683Z,55.08
2022-10-24T06:00:32.139Z,55.51
2022-10-24T06:02:59.503Z,55.38
2022-10-24T06:08:20.807Z,56.01
2022-10-24T06:10:48.319Z,55.76
2022-10-24T06:13:14.841Z,56.13
2022-10-24T06:15:41.444Z,56.59
2022-10-24T06:18:08.117Z,56.70
2022-10-24T06:23:29.514Z,56.50
2022-10-24T06:25:55.997Z,56.99
2022-10-24T06:28:23.388Z,56.26
2022-10-24T06:30:49.822Z,56.59
2022-10-24T06:33:17.182Z,57.04
2022-10-24T06:38:28.453Z,56.69
2022-10-24T06:40:55.846Z,56.82
2022-10-24T06:43:22.340Z,56.60
2022-10-24T06:45:49.707Z,56.42
2022-10-24T06:48:16.147Z,56.82
2022-10-24T06:53:37.277Z,56.73
2022-10-24T06:56:03.720Z,56.41
2022-10-24T06:58:31.083Z,56.84
2022-10-24T07:00:58.543Z,56.88
2022-10-24T07:03:26.020Z,56.81
2022-10-24T07:08:47.324Z,56.71
2022-10-24T07:11:14.741Z,56.46
2022-10-24T07:13:41.193Z,57.12
2022-10-24T07:16:07.740Z,56.87
2022-10-24T07:18:34.173Z,56.76
2022-10-24T07:23:46.460Z,56.81
2022-10-24T07:26:13.876Z,56.54
2022-10-24T07:28:41.259Z,56.32
2022-10-24T07:31:07.773Z,56.30
2022-10-24T07:33:34.242Z,56.22
2022-10-24T07:38:46.050Z,56.62
2022-10-24T07:41:12.510Z,56.77
2022-10-24T07:43:38.958Z,56.54
2022-10-24T07:46:05.425Z,56.05
2022-10-24T07:48:31.891Z,56.20
2022-10-24T07:53:53.358Z,56.11
2022-10-24T07:56:20.760Z,55.92
2022-10-24T07:58:47.211Z,56.03
2022-10-24T08:01:13.818Z,55.88
2022-10-24T08:03:40.291Z,55.92
2022-10-24T08:08:50.857Z,56.02
2022-10-24T08:11:18.478Z,55.98
2022-10-24T08:13:44.971Z,55.63
2022-10-24T08:16:12.405Z,55.64
2022-10-24T08:18:39.915Z,55.86
2022-10-24T08:23:51.508Z,55.68
2022-10-24T08:26:18.882Z,56.11
2022-10-24T08:28:45.357Z,55.63
2022-10-24T08:31:12.731Z,55.70
2022-10-24T08:33:39.188Z,55.94
2022-10-24T08:39:00.689Z,55.73
2022-10-24T08:41:27.304Z,56.00
2022-10-24T08:43:54.823Z,55.74
2022-10-24T08:46:22.191Z,55.50
2022-10-24T08:48:48.644Z,55.78
2022-10-24T08:54:00.120Z,55.31
2022-10-24T08:56:26.570Z,55.67
2022-10-24T08:58:53.093Z,55.46
2022-10-24T09:01:20.649Z,55.55
2022-10-24T09:04:02.612Z,55.57
2022-10-24T09:09:24.102Z,54.55
2022-10-24T09:11:50.558Z,54.85
2022-10-24T09:14:17.011Z,55.13
2022-10-24T09:16:43.511Z,55.12
2022-10-24T09:19:10.893Z,55.33
2022-10-24T09:24:32.439Z,54.36
2022-10-24T09:26:59.821Z,54.43
2022-10-24T09:29:26.309Z,54.47
2022-10-24T09:31:52.778Z,54.11
2022-10-24T09:34:20.201Z,54.30
2022-10-24T09:39:42.511Z,54.38
2022-10-24T09:42:08.962Z,54.54
2022-10-24T09:44:35.426Z,54.47
2022-10-24T09:47:02.826Z,54.42
2022-10-24T09:49:30.184Z,54.20
2022-10-24T09:54:51.550Z,54.65
2022-10-24T09:57:18.949Z,54.72
2022-10-24T09:59:46.308Z,54.97
2022-10-24T10:02:13.737Z,55.45
2022-10-24T10:04:40.248Z,55.24
2022-10-24T10:09:55.606Z,55.24
2022-10-24T10:12:24.300Z,55.34
2022-10-24T10:14:51.663Z,55.46
2022-10-24T10:17:19.039Z,55.62
2022-10-24T10:19:45.511Z,55.52
2022-10-24T10:24:57.015Z,55.88
2022-10-24T10:27:23.445Z,55.96
2022-10-24T10:29:49.877Z,55.84
2022-10-24T10:32:17.232Z,55.66
2022-10-24T10:34:44.607Z,55.54
2022-10-24T10:37:11.037Z,55.35
2022-10-24T10:39:41.818Z,55.49
2022-10-24T10:42:11.671Z,55.47
2022-10-24T10:44:38.172Z,55.39
2022-10-24T10:47:05.569Z,54.86
2022-10-24T10:49:32.030Z,54.98
2022-10-24T10:51:59.410Z,55.34
2022-10-24T10:54:26.749Z,55.11
2022-10-24T10:56:54.076Z,55.51
2022-10-24T10:59:23.566Z,55.50
2022-10-24T11:01:53.298Z,55.86
2022-10-24T11:04:19.766Z,55.39
2022-10-24T11:06:47.049Z,56.08
2022-10-24T11:09:13.529Z,56.25
2022-10-24T11:11:40.893Z,56.66
2022-10-24T11:14:08.266Z,57.03
2022-10-24T11:16:34.729Z,56.94
2022-10-24T11:19:02.087Z,56.92
2022-10-24T11:21:28.536Z,57.25
2022-10-24T11:23:54.970Z,57.43
2022-10-24T11:26:21.416Z,57.30
2022-10-24T11:28:47.870Z,56.98
2022-10-24T11:31:15.233Z,57.50
2022-10-24T11:33:41.718Z,57.33
2022-10-24T11:36:08.178Z,57.71
2022-10-24T11:38:34.652Z,57.51
2022-10-24T11:41:01.095Z,57.61
2022-10-24T11:43:28.141Z,57.24
2022-10-24T11:45:54.615Z,57.47
2022-10-24T11:48:21.079Z,57.66
2022-10-24T11:50:48.453Z,57.21
2022-10-24T11:53:15.861Z,57.70
2022-10-24T11:55:42.309Z,57.90
2022-10-24T11:58:08.778Z,58.16
2022-10-24T12:00:35.238Z,58.35
2022-10-24T12:03:01.743Z,58.36
2022-10-24T12:05:28.341Z,58.59
2022-10-24T12:07:54.801Z,58.60
2022-10-24T12:13:06.008Z,58.45
2022-10-24T12:15:35.475Z,57.91
2022-10-24T12:18:04.052Z,58.33
2022-10-24T12:20:31.419Z,58.46
2022-10-24T12:22:57.886Z,58.41
2022-10-24T12:28:10.296Z,58.79
2022-10-24T12:30:36.772Z,58.60
2022-10-24T12:33:03.249Z,58.07
2022-10-24T12:35:31.569Z,57.70
2022-10-24T12:37:59.266Z,58.22
2022-10-24T12:43:10.815Z,57.65
2022-10-24T12:45:38.191Z,57.63
2022-10-24T12:48:05.509Z,57.42
2022-10-24T12:50:31.949Z,57.37
2022-10-24T12:52:58.406Z,57.55
2022-10-24T12:58:19.768Z,58.00
2022-10-24T13:00:46.197Z,58.36
2022-10-24T13:03:13.538Z,58.43
2022-10-24T13:05:39.968Z,58.19
2022-10-24T13:08:07.316Z,57.62
2022-10-24T13:13:29.320Z,57.69
2022-10-24T13:15:55.766Z,57.52
2022-10-24T13:18:23.071Z,57.50
2022-10-24T13:20:49.571Z,57.57
2022-10-24T13:23:16.912Z,57.31
2022-10-24T13:28:28.236Z,57.46
2022-10-24T13:30:55.540Z,57.56
2022-10-24T13:33:21.966Z,57.66
2022-10-24T13:35:49.243Z,57.54
2022-10-24T13:38:15.731Z,57.77
2022-10-24T13:43:27.990Z,57.77
2022-10-24T13:45:54.385Z,57.56
2022-10-24T13:48:21.754Z,57.48
2022-10-24T13:50:48.141Z,57.30
2022-10-24T13:53:14.594Z,57.50
2022-10-24T13:58:24.954Z,57.16
2022-10-24T14:00:51.369Z,56.77
2022-10-24T14:03:18.797Z,57.06
2022-10-24T14:05:46.128Z,56.66
2022-10-24T14:08:12.582Z,57.03
2022-10-24T14:13:33.028Z,57.19
2022-10-24T14:16:00.245Z,57.02
2022-10-24T14:18:26.720Z,56.45
2022-10-24T14:20:55.014Z,56.43
2022-10-24T14:23:23.314Z,56.37
2022-10-24T14:31:10.044Z,56.62
2022-10-24T14:33:38.336Z,56.68
2022-10-24T14:36:04.772Z,56.58
2022-10-24T14:38:31.237Z,56.79
2022-10-24T14:43:52.404Z,57.15
2022-10-24T14:46:22.192Z,57.06
2022-10-24T14:48:53.216Z,57.13
2022-10-24T14:51:19.691Z,57.13
2022-10-24T14:53:46.905Z,57.04
2022-10-24T14:58:58.371Z,57.44
2022-10-24T15:01:25.692Z,56.99
2022-10-24T15:03:52.337Z,57.33
2022-10-24T15:06:18.745Z,56.95
2022-10-24T15:08:46.108Z,57.20
2022-10-24T15:14:08.288Z,57.19
2022-10-24T15:16:34.683Z,57.16
2022-10-24T15:19:01.153Z,56.89
2022-10-24T15:21:27.558Z,56.83
2022-10-24T15:23:53.955Z,57.30
2022-10-24T15:29:14.927Z,56.94
2022-10-24T15:31:41.349Z,57.17
2022-10-24T15:34:08.643Z,57.11
2022-10-24T15:36:35.980Z,57.13
2022-10-24T15:39:02.396Z,57.25
2022-10-24T15:44:13.553Z,57.21
2022-10-24T15:46:39.947Z,57.52
2022-10-24T15:49:06.377Z,57.18
2022-10-24T15:51:33.706Z,57.28
2022-10-24T15:54:01.025Z,56.95
2022-10-24T15:59:12.430Z,56.21
2022-10-24T16:01:40.534Z,56.39
2022-10-24T16:04:07.408Z,56.39
2022-10-24T16:06:33.892Z,56.42
2022-10-24T16:09:01.119Z,56.00
2022-10-24T16:14:22.536Z,55.29
2022-10-24T16:16:48.978Z,54.69
2022-10-24T16:19:17.265Z,54.68
2022-10-24T16:21:43.889Z,55.72
2022-10-24T16:24:11.150Z,55.81
2022-10-24T16:29:23.201Z,55.71
2022-10-24T16:31:50.409Z,56.07
2022-10-24T16:34:16.810Z,55.16
2022-10-24T16:36:44.066Z,55.44
2022-10-24T16:39:11.293Z,56.07
2022-10-24T16:44:22.979Z,56.52
2022-10-24T16:46:49.430Z,56.63
2022-10-24T16:49:16.156Z,56.52
2022-10-24T16:51:43.942Z,56.53
2022-10-24T16:54:10.592Z,55.73
2022-10-24T16:59:30.956Z,55.29
2022-10-24T17:01:57.513Z,55.56
2022-10-24T17:04:25.482Z,56.00
2022-10-24T17:06:52.943Z,56.27
2022-10-24T17:09:20.248Z,55.53
2022-10-24T17:14:40.857Z,56.83
2022-10-24T17:17:07.532Z,56.86
2022-10-24T17:19:33.967Z,56.79
2022-10-24T17:22:01.347Z,56.76
2022-10-24T17:24:27.791Z,56.70
2022-10-24T17:29:50.003Z,56.46
2022-10-24T17:32:16.506Z,57.20
2022-10-24T17:34:42.991Z,56.74
2022-10-24T17:37:09.475Z,56.38
2022-10-24T17:39:35.968Z,56.53
2022-10-24T17:44:47.594Z,56.71
2022-10-24T17:47:14.979Z,56.74
2022-10-24T17:49:41.870Z,56.63
2022-10-24T17:52:08.349Z,56.85
2022-10-24T17:54:35.549Z,57.72
2022-10-24T17:59:56.744Z,56.61
2022-10-24T18:02:23.237Z,57.23
2022-10-24T18:04:50.725Z,57.50
2022-10-24T18:07:18.255Z,57.43
2022-10-24T18:09:45.650Z,57.75
2022-10-24T18:15:07.258Z,58.18
2022-10-24T18:17:35.615Z,57.88
2022-10-24T18:20:02.090Z,57.65
2022-10-24T18:22:28.539Z,58.16
2022-10-24T18:24:55.019Z,57.51
2022-10-24T18:30:05.441Z,57.35
2022-10-24T18:32:32.833Z,57.82
2022-10-24T18:35:00.255Z,57.57
2022-10-24T18:37:26.734Z,57.93
2022-10-24T18:39:53.338Z,57.88
2022-10-24T18:45:05.031Z,58.33
2022-10-24T18:47:32.656Z,58.19
2022-10-24T18:49:59.113Z,56.94
2022-10-24T18:52:25.555Z,56.37
2022-10-24T18:54:52.852Z,56.09
2022-10-24T19:00:14.911Z,55.17
2022-10-24T19:02:41.617Z,56.04
2022-10-24T19:05:08.885Z,55.76
2022-10-24T19:07:35.286Z,56.03
2022-10-24T19:10:02.516Z,55.95
2022-10-24T19:15:15.398Z,55.12
2022-10-24T19:17:41.859Z,55.30
2022-10-24T19:20:08.323Z,54.93
2022-10-24T19:22:34.774Z,55.77
2022-10-24T19:25:04.133Z,55.70
2022-10-24T19:30:18.237Z,55.74
2022-10-24T19:32:44.796Z,56.07
2022-10-24T19:35:13.560Z,56.72
2022-10-24T19:37:41.015Z,56.26
2022-10-24T19:40:07.422Z,56.52
2022-10-24T19:42:34.817Z,56.68
2022-10-24T19:45:02.467Z,56.93
2022-10-24T19:47:28.891Z,56.82
2022-10-24T19:49:56.174Z,57.09
2022-10-24T19:52:23.448Z,57.16
2022-10-24T19:54:49.862Z,56.87
2022-10-24T19:57:16.277Z,56.07
2022-10-24T19:59:42.703Z,55.97
2022-10-24T20:02:09.127Z,55.75
2022-10-24T20:04:35.530Z,56.38
2022-10-24T20:07:02.125Z,57.12
2022-10-24T20:09:29.422Z,56.84
2022-10-24T20:11:55.828Z,57.07
2022-10-24T20:14:23.063Z,56.98
2022-10-24T20:16:50.301Z,57.02
2022-10-24T20:19:16.800Z,56.85
2022-10-24T20:21:43.224Z,56.73
2022-10-24T20:24:09.665Z,56.64
2022-10-24T20:26:36.087Z,57.26
2022-10-24T20:29:02.509Z,56.88
2022-10-24T20:31:28.922Z,57.25
2022-10-24T20:33:56.257Z,57.37
2022-10-24T20:36:23.559Z,56.90
2022-10-24T20:38:49.979Z,57.28
2022-10-24T20:41:17.218Z,57.23
2022-10-24T20:43:43.676Z,57.09
2022-10-24T20:46:10.965Z,57.16
2022-10-24T20:48:38.178Z,57.06
2022-10-24T20:51:04.742Z,57.38
2022-10-24T20:53:31.200Z,57.02
2022-10-24T20:55:57.606Z,57.09
2022-10-24T20:58:24.879Z,57.22
2022-10-24T21:00:52.145Z,57.68
2022-10-24T21:03:18.611Z,57.68
2022-10-24T21:05:45.910Z,57.68
2022-10-24T21:08:12.490Z,57.63
2022-10-24T21:10:38.957Z,57.77
2022-10-24T21:13:05.343Z,57.53
2022-10-24T21:18:26.613Z,57.94
2022-10-24T21:20:53.869Z,57.53
2022-10-24T21:23:21.136Z,57.61
2022-10-24T21:25:48.406Z,57.38
2022-10-24T21:28:14.891Z,57.58
2022-10-24T21:33:36.945Z,57.61
2022-10-24T21:36:04.248Z,57.89
2022-10-24T21:38:31.457Z,57.44
2022-10-24T21:40:57.843Z,57.90
2022-10-24T21:43:24.295Z,57.63
2022-10-24T21:48:35.639Z,57.89
2022-10-24T21:51:02.051Z,57.80
2022-10-24T21:53:29.331Z,57.58
2022-10-24T21:55:56.531Z,57.68
2022-10-24T21:58:23.735Z,58.09
2022-10-24T22:03:45.851Z,58.15
2022-10-24T22:06:13.096Z,58.39
2022-10-24T22:08:40.325Z,58.06
2022-10-24T22:11:08.637Z,58.41
2022-10-24T22:13:37.803Z,58.02
2022-10-24T22:18:49.162Z,58.16
2022-10-24T22:21:15.634Z,58.36
2022-10-24T22:23:42.158Z,58.44
2022-10-24T22:26:08.582Z,58.46
2022-10-24T22:28:35.070Z,58.85
2022-10-24T22:33:45.736Z,58.76
2022-10-24T22:36:12.978Z,58.68
2022-10-24T22:38:39.355Z,59.37
2022-10-24T22:41:05.787Z,59.39
2022-10-24T22:43:32.218Z,59.45
2022-10-24T22:48:43.333Z,59.07
2022-10-24T22:51:09.814Z,58.76
2022-10-24T22:53:37.032Z,59.52
2022-10-24T22:56:04.317Z,59.52
2022-10-24T22:58:32.590Z,59.13
2022-10-24T23:03:57.189Z,59.32
2022-10-24T23:06:23.649Z,59.34
2022-10-24T23:08:50.889Z,59.43
2022-10-24T23:11:17.387Z,59.47
2022-10-24T23:13:43.857Z,59.32
2022-10-24T23:19:07.104Z,59.58
2022-10-24T23:21:34.333Z,59.57
2022-10-24T23:24:01.590Z,59.63
2022-10-24T23:26:27.968Z,59.47
2022-10-24T23:28:55.251Z,59.59
2022-10-24T23:34:16.461Z,59.77
2022-10-24T23:36:42.983Z,59.54
2022-10-24T23:39:09.413Z,59.20
2022-10-24T23:41:37.755Z,59.44
2022-10-24T23:44:05.009Z,59.47
2022-10-24T23:49:17.042Z,59.51
2022-10-24T23:51:43.457Z,59.65
2022-10-24T23:54:09.884Z,59.71
2022-10-24T23:56:38.157Z,59.94
2022-10-24T23:59:05.456Z,59.99
